Portada
METAR-TAF:

METAR-TAF

Aeropuertos :

Aeropuerto Internacional de Dakar-Yoff/Léopold Sédar Senghor

Dakar, Senegal

latitud: 14-44N, longitud: 017-30W, altitud: 27 m

Observación

El informe se hizo hace 1 hora y 18 minutos, a las 20:00 UTC
Viento 6 kt del norte
Temperatura 23°C
Humedad 89%
Presión 1011 hPa
Visibilidad: 8000 m

METAR: GOOY 132000Z 36006KT 8000 NSC 23/21 Q1011

Hora: 21:18 (21:18 UTC)

Pronóstico

El informe se hizo hace 3 horas y 48 minutos, a las 17:30 UTC
Pronóstico válido del 13 a las 18 UTC al 14 a las 24 UTC
Viento 8 kt del norte
Visibilidad 10 km o más
sin nubes por debajo de 1500 m y sin presencia de cumulonimbus.

TAF: GOOY 131730Z 1318/1424 36008KT CAVOK

Observaciones y pronósticos meteorológicos de más de 4000 aeropuertos (mensajes METAR y TAF).

Los puntos amarillos y rojos representan las estaciones disponibles.

Ponga el ratón en el punto deseado para ver el nombre de la estación.

Haga clic para ver las observaciones y los pronósticos meteorológicos.

Para cambiar el mapa : haga clic en los botones verdes con una cruz de color negro para hacer un zoom, en el botón verde con un guión para alejar o en las flechas verdes para mapas adyacentes.


METAR-TAF: